Time;durP1;ratioP1;P1;durP2;ratioP2;P2;SDS_P1;SDS_P2;PMS_P1;PMS_P2;Temp;Humidity;BMP_temperature;BMP_pressure;BME280_temperature;BME280_humidity;BME280_pressure;Samples;Min_cycle;Max_cycle;Signal;HPM_P1;HPM_P2
2022/07/12 00:00:15;;;;;;;4.13;2.60;;;;;;;16.16;50.29;100530.91;125336;1099;104246;-77
2022/07/12 00:03:06;;;;;;;6.13;2.60;;;;;;;16.09;49.37;100536.97;125170;1099;104194;-76
2022/07/12 00:05:38;;;;;;;10.43;2.97;;;;;;;16.05;50.65;100537.78;124518;1100;104253;-76
2022/07/12 00:08:10;;;;;;;5.37;2.93;;;;;;;15.99;50.87;100526.26;125324;1098;104191;-75
2022/07/12 00:10:43;;;;;;;7.03;3.10;;;;;;;15.95;50.19;100539.42;125276;1099;104385;-75
2022/07/12 00:13:15;;;;;;;7.77;2.93;;;;;;;15.91;50.22;100535.86;124976;1099;104245;-75
2022/07/12 00:15:47;;;;;;;6.13;2.93;;;;;;;15.87;50.22;100541.08;125534;1099;104127;-76
2022/07/12 00:18:20;;;;;;;5.67;2.80;;;;;;;15.81;50.74;100540.09;125152;1099;104188;-76
2022/07/12 00:20:52;;;;;;;8.70;2.70;;;;;;;15.78;51.72;100540.09;125163;1098;104213;-76
2022/07/12 00:23:23;;;;;;;10.05;2.70;;;;;;;15.75;50.87;100539.09;124654;1099;104322;-76
2022/07/12 00:25:55;;;;;;;7.70;3.07;;;;;;;15.73;52.21;100546.13;125331;1099;102918;-76
2022/07/12 00:28:27;;;;;;;6.17;2.90;;;;;;;15.69;52.12;100537.27;125185;1099;104232;-75
2022/07/12 00:30:59;;;;;;;8.63;3.10;;;;;;;15.64;52.71;100539.84;124507;1099;103802;-76
2022/07/12 00:33:31;;;;;;;5.43;3.00;;;;;;;15.60;52.69;100542.41;125000;1099;104217;-76
2022/07/12 00:36:03;;;;;;;5.10;2.47;;;;;;;15.57;52.86;100542.36;124661;1102;104335;-76
2022/07/12 00:38:35;;;;;;;6.80;2.93;;;;;;;15.52;52.76;100533.44;124312;1099;104268;-76
2022/07/12 00:41:07;;;;;;;12.37;2.70;;;;;;;15.49;52.93;100542.23;124313;1099;104424;-76
2022/07/12 00:43:39;;;;;;;4.43;2.73;;;;;;;15.48;53.25;100531.63;124548;1102;104156;-76
2022/07/12 00:46:11;;;;;;;8.40;2.77;;;;;;;15.43;52.64;100531.56;124196;1099;104478;-75
2022/07/12 00:48:44;;;;;;;5.53;2.87;;;;;;;15.40;53.27;100534.16;124526;1097;103559;-76
2022/07/12 00:51:17;;;;;;;5.25;2.90;;;;;;;15.35;53.75;100531.43;124307;1099;104351;-76
2022/07/12 00:53:49;;;;;;;4.60;2.75;;;;;;;15.32;53.17;100528.73;124320;1099;104515;-76
2022/07/12 00:56:21;;;;;;;10.33;2.90;;;;;;;15.28;53.65;100532.17;124481;1099;104163;-76
2022/07/12 00:58:57;;;;;;;5.07;2.67;;;;;;;15.25;52.75;100543.61;124405;1099;104341;-75
2022/07/12 01:01:29;;;;;;;5.47;2.60;;;;;;;15.20;53.74;100542.62;124596;1102;104475;-75
2022/07/12 01:04:02;;;;;;;4.37;2.70;;;;;;;15.16;53.51;100546.09;124641;1102;104402;-76
2022/07/12 01:06:34;;;;;;;7.57;2.90;;;;;;;15.13;53.81;100534.55;124463;1099;104300;-76
2022/07/12 01:09:07;;;;;;;6.83;2.70;;;;;;;15.12;54.16;100546.01;124927;1099;104233;-76
2022/07/12 01:11:43;;;;;;;13.30;3.40;;;;;;;15.10;53.38;100543.34;125491;1099;104268;-76
2022/07/12 01:14:15;;;;;;;7.47;2.57;;;;;;;15.10;54.20;100538.94;124999;1098;104175;-76
2022/07/12 01:16:55;;;;;;;3.87;2.73;;;;;;;15.11;53.30;100537.17;125619;1099;104028;-76
2022/07/12 01:19:30;;;;;;;6.03;2.50;;;;;;;15.16;53.47;100531.96;125181;1099;104319;-76
2022/07/12 01:22:07;;;;;;;5.40;2.70;;;;;;;15.20;54.35;100536.45;125168;1099;104216;-76
2022/07/12 01:24:43;;;;;;;4.80;2.60;;;;;;;15.20;54.35;100533.81;125519;1099;104267;-76
2022/07/12 01:27:16;;;;;;;6.05;2.70;;;;;;;15.22;54.61;100535.63;124967;1099;108147;-76
2022/07/12 01:29:49;;;;;;;7.10;2.80;;;;;;;15.15;54.30;100528.44;125126;1099;102434;-75
2022/07/12 01:32:29;;;;;;;5.22;2.77;;;;;;;15.18;54.20;100539.07;124794;1099;104251;-76
2022/07/12 01:35:04;;;;;;;7.15;3.60;;;;;;;15.18;54.37;100539.07;125461;1099;104156;-76
2022/07/12 01:37:41;;;;;;;4.57;2.73;;;;;;;15.20;53.92;100542.62;125117;1102;118716;-76
2022/07/12 01:40:14;;;;;;;8.53;2.87;;;;;;;15.22;53.76;100545.28;125099;1099;104325;-76
2022/07/12 01:42:47;;;;;;;8.57;3.10;;;;;;;15.19;54.72;100546.14;125310;1099;104185;-76
2022/07/12 01:45:19;;;;;;;5.77;2.80;;;;;;;15.17;54.40;100549.61;125401;1099;104220;-76
2022/07/12 01:47:51;;;;;;;5.50;2.70;;;;;;;15.15;54.64;100552.23;125520;1099;104163;-76
2022/07/12 01:50:24;;;;;;;8.33;3.20;;;;;;;15.17;54.19;100552.26;125101;1099;104255;-76
2022/07/12 01:52:56;;;;;;;6.67;3.03;;;;;;;15.17;54.25;100557.55;125454;1098;104447;-76
2022/07/12 01:55:33;;;;;;;7.20;2.90;;;;;;;15.18;54.81;100552.28;125429;1099;104239;-76
2022/07/12 01:58:10;;;;;;;7.97;2.70;;;;;;;15.19;54.89;100548.79;124960;1102;111510;-76
2022/07/12 02:00:50;;;;;;;7.03;2.57;;;;;;;15.18;54.75;100552.28;125707;1099;104232;-76
2022/07/12 02:03:22;;;;;;;5.40;2.63;;;;;;;15.18;54.92;100554.05;125566;1099;104258;-77
2022/07/12 02:05:55;;;;;;;6.03;2.87;;;;;;;15.19;55.00;100547.88;125602;1099;104341;-76
2022/07/12 02:08:31;;;;;;;9.70;2.80;;;;;;;15.17;54.55;100552.26;125395;1099;104239;-76
2022/07/12 02:11:02;;;;;;;6.20;2.60;;;;;;;15.15;54.76;100552.23;124817;1099;104267;-76
2022/07/12 02:13:34;;;;;;;3.83;2.40;;;;;;;15.13;55.09;100555.70;124941;1099;104705;-76
2022/07/12 02:16:07;;;;;;;5.77;2.47;;;;;;;15.09;55.18;100555.64;125554;1099;104339;-76
2022/07/12 02:18:40;;;;;;;6.97;2.58;;;;;;;15.07;55.22;100552.09;125887;1098;104165;-76
2022/07/12 02:21:13;;;;;;;8.90;2.70;;;;;;;15.09;54.63;100565.33;125709;1099;104181;-76
2022/07/12 02:23:46;;;;;;;5.67;2.60;;;;;;;15.13;55.12;100559.25;125100;1099;104277;-76
2022/07/12 02:26:25;;;;;;;5.05;2.55;;;;;;;15.13;54.62;100558.34;125492;1099;104181;-76
2022/07/12 02:28:59;;;;;;;7.75;2.70;;;;;;;15.12;55.73;100564.51;125217;1099;122139;-76
2022/07/12 02:31:31;;;;;;;6.40;2.57;;;;;;;15.18;55.50;100561.98;124739;1099;104319;-76
2022/07/12 02:34:05;;;;;;;5.67;2.50;;;;;;;15.23;54.76;100561.17;124558;1099;104166;-76
2022/07/12 02:36:36;;;;;;;;;;;;;;;15.25;55.24;100564.76;124955;1099;102805;-75
2022/07/12 02:39:13;;;;;;;4.53;2.77;;;;;;;15.31;54.87;100569.24;124802;1102;104191;-75
2022/07/12 02:41:45;;;;;;;5.60;2.67;;;;;;;15.34;54.99;100571.94;124849;1099;104218;-76
2022/07/12 02:44:20;;;;;;;7.37;2.70;;;;;;;15.38;55.03;100567.59;125357;1099;104383;-75
2022/07/12 02:46:53;;;;;;;5.57;2.60;;;;;;;15.40;55.02;100571.17;125238;1099;104088;-76
2022/07/12 02:49:27;;;;;;;8.97;2.90;;;;;;;15.44;55.85;100576.53;125100;1099;110842;-75
2022/07/12 02:51:59;;;;;;;4.80;2.80;;;;;;;15.43;54.99;100573.86;124912;1099;104347;-75
2022/07/12 02:54:32;;;;;;;7.83;3.10;;;;;;;15.39;54.96;100572.90;124900;1099;104304;-76
2022/07/12 02:57:04;;;;;;;10.33;2.83;;;;;;;15.36;54.97;100574.61;124954;1099;104246;-76
2022/07/12 02:59:36;;;;;;;6.00;2.80;;;;;;;15.33;55.14;100570.15;125431;1099;104205;-76
2022/07/12 03:02:08;;;;;;;6.33;2.83;;;;;;;15.29;55.18;100576.27;125505;1099;104205;-75
2022/07/12 03:04:40;;;;;;;6.33;3.10;;;;;;;15.28;55.11;100577.12;125383;1098;104174;-76
2022/07/12 03:07:13;;;;;;;8.23;3.80;;;;;;;15.27;56.21;100575.36;124979;1102;102916;-76
2022/07/12 03:09:45;;;;;;;12.10;3.13;;;;;;;15.27;55.27;100578.88;125471;1099;107609;-76
2022/07/12 03:12:18;;;;;;;6.70;2.67;;;;;;;15.32;55.18;100584.25;124900;1099;104399;-76
2022/07/12 03:14:58;;;;;;;5.90;2.83;;;;;;;15.35;55.56;100583.39;125043;1102;103021;-76
2022/07/12 03:17:30;;;;;;;6.20;2.63;;;;;;;15.34;56.29;100595.73;125155;1102;104229;-76
2022/07/12 03:20:05;;;;;;;11.37;3.00;;;;;;;15.32;55.26;100594.83;125107;1100;120284;-76
2022/07/12 03:22:38;;;;;;;3.87;2.63;;;;;;;15.30;55.39;100596.53;125325;1099;104313;-76
2022/07/12 03:25:12;;;;;;;7.33;2.73;;;;;;;15.28;56.40;100601.79;125523;1099;104303;-76
2022/07/12 03:27:44;;;;;;;7.93;2.90;;;;;;;15.27;55.71;100607.08;125318;1099;104214;-76
2022/07/12 03:30:20;;;;;;;34.03;5.93;;;;;;;15.28;56.55;100611.48;124805;1100;104255;-76
2022/07/12 03:32:52;;;;;;;8.83;3.10;;;;;;;15.28;55.91;100604.44;125290;1099;104232;-76
2022/07/12 03:35:23;;;;;;;5.83;2.83;;;;;;;15.26;55.75;100606.17;125410;1099;104192;-77
2022/07/12 03:37:56;;;;;;;17.83;3.60;;;;;;;15.23;56.19;100610.52;126008;1099;104070;-76
2022/07/12 03:40:41;;;;;;;20.83;4.00;;;;;;;15.25;56.76;100604.41;125486;1099;110670;-77
2022/07/12 03:43:13;;;;;;;12.00;3.00;;;;;;;15.33;56.41;100615.09;125218;1099;104217;-77
2022/07/12 03:45:45;;;;;;;5.17;2.67;;;;;;;15.34;56.20;100613.36;126012;1099;104294;-76
2022/07/12 03:48:17;;;;;;;7.20;2.87;;;;;;;15.30;56.78;100609.75;125337;1099;104220;-76
2022/07/12 03:50:52;;;;;;;6.33;2.50;;;;;;;15.30;57.06;100595.65;124653;1099;104264;-76
2022/07/12 03:53:24;;;;;;;6.30;2.77;;;;;;;15.30;56.72;100600.94;125026;1099;104380;-76
2022/07/12 03:55:55;;;;;;;9.43;2.90;;;;;;;15.28;57.33;100604.44;125204;1099;104235;-76
2022/07/12 03:58:27;;;;;;;6.00;2.60;;;;;;;15.28;57.45;100608.84;125560;1099;104262;-76
2022/07/12 04:00:58;;;;;;;9.23;3.17;;;;;;;15.30;56.73;100608.87;123823;1099;104277;-76
2022/07/12 04:03:30;;;;;;;11.40;2.75;;;;;;;15.27;57.24;100617.66;123916;1099;104348;-76
2022/07/12 04:06:01;;;;;;;7.13;2.70;;;;;;;15.24;57.23;100618.48;124115;1099;104264;-76
2022/07/12 04:08:33;;;;;;;7.67;2.80;;;;;;;15.22;57.62;100617.57;124051;1099;104877;-76
2022/07/12 04:11:07;;;;;;;7.25;2.90;;;;;;;15.23;57.28;100610.52;123650;1099;104268;-76
2022/07/12 04:13:39;;;;;;;7.13;2.70;;;;;;;15.25;57.70;100614.98;124064;1098;104204;-76
2022/07/12 04:16:10;;;;;;;7.90;2.70;;;;;;;15.27;57.48;100612.37;124094;1099;104351;-76
2022/07/12 04:18:42;;;;;;;5.00;2.30;;;;;;;15.31;57.14;100616.83;124294;1099;104185;-76
2022/07/12 04:21:13;;;;;;;5.40;2.30;;;;;;;15.34;56.78;100614.24;124223;1099;104267;-75
2022/07/12 04:23:45;;;;;;;4.75;2.40;;;;;;;15.38;56.77;100621.38;124055;1099;104342;-75
2022/07/12 04:26:16;;;;;;;3.43;2.13;;;;;;;15.44;57.06;100624.13;123816;1099;104386;-76
2022/07/12 04:28:48;;;;;;;4.63;2.40;;;;;;;15.51;56.67;100633.05;124122;1099;104219;-75
2022/07/12 04:31:28;;;;;;;9.93;2.40;;;;;;;15.58;56.72;100623.46;124038;1099;104347;-75
2022/07/12 04:33:59;;;;;;;4.75;2.25;;;;;;;15.66;56.54;100632.44;123996;1099;104290;-75
2022/07/12 04:36:32;;;;;;;6.87;2.60;;;;;;;15.69;56.65;100635.14;124146;1099;104347;-75
2022/07/12 04:39:04;;;;;;;5.63;2.20;;;;;;;15.72;56.69;100627.25;123928;1099;104270;-76
2022/07/12 04:41:36;;;;;;;4.77;2.07;;;;;;;15.82;56.47;100633.61;124013;1099;104754;-76
2022/07/12 04:44:08;;;;;;;5.77;2.30;;;;;;;15.89;56.68;100629.30;123753;1099;104300;-75
2022/07/12 04:46:39;;;;;;;7.40;2.20;;;;;;;15.91;55.96;100628.47;124048;1099;104277;-76
2022/07/12 04:49:11;;;;;;;5.50;2.30;;;;;;;15.94;55.96;100627.61;123797;1098;104347;-75
2022/07/12 04:51:45;;;;;;;4.23;2.30;;;;;;;15.96;56.58;100629.42;123735;1099;104270;-75
2022/07/12 04:54:16;;;;;;;2.62;2.25;;;;;;;16.03;56.29;100637.46;124619;1099;104919;-76
2022/07/12 04:56:47;;;;;;;5.57;2.00;;;;;;;16.06;56.11;100643.69;124465;1099;104284;-76
2022/07/12 04:59:19;;;;;;;5.93;2.43;;;;;;;16.09;55.51;100646.38;125179;1099;104338;-76
2022/07/12 05:01:51;;;;;;;6.80;2.53;;;;;;;16.12;55.68;100635.84;124579;1099;104251;-77
2022/07/12 05:04:23;;;;;;;5.20;2.17;;;;;;;16.17;56.17;100642.11;124463;1099;104236;-77
2022/07/12 05:06:54;;;;;;;5.30;2.25;;;;;;;16.21;56.12;100632.45;124452;1099;104341;-76
2022/07/12 05:09:26;;;;;;;3.70;2.20;;;;;;;16.25;55.41;100617.48;125178;1099;104213;-76
2022/07/12 05:11:57;;;;;;;7.10;2.60;;;;;;;16.32;55.03;100619.37;124481;1099;104271;-77
2022/07/12 05:14:29;;;;;;;6.83;2.23;;;;;;;16.37;54.90;100622.96;124611;1099;104312;-75
2022/07/12 05:17:04;;;;;;;3.47;2.40;;;;;;;16.43;55.61;100620.40;124702;1099;104395;-76
2022/07/12 05:19:39;;;;;;;9.53;2.10;;;;;;;16.50;54.97;100627.57;125611;1099;104239;-76
2022/07/12 05:22:11;;;;;;;4.57;1.97;;;;;;;16.56;54.88;100623.21;124832;1099;104271;-75
2022/07/12 05:24:42;;;;;;;5.60;2.30;;;;;;;16.62;55.40;100616.22;124900;1099;104880;-76
2022/07/12 05:27:14;;;;;;;8.00;2.33;;;;;;;16.72;55.29;100619.91;124699;1099;104153;-75
2022/07/12 05:29:45;;;;;;;4.90;2.10;;;;;;;16.79;55.09;100616.44;124571;1099;104165;-76
2022/07/12 05:32:17;;;;;;;7.27;2.10;;;;;;;16.85;54.27;100627.11;124755;1099;104165;-75
2022/07/12 05:34:48;;;;;;;6.60;2.20;;;;;;;16.89;54.58;100623.67;124873;1099;104175;-75
2022/07/12 05:37:20;;;;;;;11.10;2.60;;;;;;;16.95;54.07;100621.95;124947;1099;104200;-76
2022/07/12 05:39:51;;;;;;;6.25;2.00;;;;;;;17.03;54.36;100629.14;124446;1099;103898;-76
2022/07/12 05:42:24;;;;;;;7.57;2.47;;;;;;;17.09;53.95;100627.42;125187;1099;104403;-77
2022/07/12 05:44:55;;;;;;;4.47;2.00;;;;;;;17.16;53.42;100626.63;124479;1099;104351;-75
2022/07/12 05:47:26;;;;;;;5.65;2.25;;;;;;;17.22;53.45;100632.88;125095;1099;104369;-76
2022/07/12 05:49:58;;;;;;;6.07;2.10;;;;;;;17.28;53.42;100625.84;125061;1099;104191;-76
2022/07/12 05:55:21;;;;;;;4.40;2.20;;;;;;;17.42;53.38;100625.12;125166;1099;104235;-75
2022/07/12 05:58:06;;;;;;;6.87;2.60;;;;;;;17.49;52.86;100630.48;125339;1099;103462;-77
2022/07/12 06:00:52;;;;;;;5.40;2.00;;;;;;;17.56;53.15;100633.21;126280;1099;102636;-78
2022/07/12 06:03:28;;;;;;;5.23;2.20;;;;;;;17.59;52.71;100627.02;126298;1099;102818;-77
2022/07/12 06:06:06;;;;;;;7.00;2.17;;;;;;;17.66;52.81;100631.52;126177;1099;103516;-78
2022/07/12 06:08:57;;;;;;;4.20;2.07;;;;;;;17.72;52.12;100636.88;126247;1098;103335;-77
2022/07/12 06:11:28;;;;;;;7.00;2.10;;;;;;;17.76;52.55;100629.83;126349;1099;104165;-77
2022/07/12 06:14:14;;;;;;;7.07;2.00;;;;;;;17.84;51.90;100636.11;126326;1098;102354;-77
2022/07/12 06:16:49;;;;;;;5.00;2.20;;;;;;;17.90;51.73;100638.84;126349;1099;103543;-77
2022/07/12 06:19:23;;;;;;;7.67;2.10;;;;;;;17.96;52.03;100638.86;126193;1099;102462;-78
2022/07/12 06:22:03;;;;;;;;;;;;;;;;;;;;;
2022/07/12 06:27:39;;;;;;;4.13;1.83;;;;;;;18.09;50.73;100629.24;126205;1099;103155;-78
2022/07/12 06:30:14;;;;;;;2.47;1.67;;;;;;;18.16;50.32;100629.28;126390;1099;104194;-77
2022/07/12 06:32:49;;;;;;;3.33;1.63;;;;;;;18.23;50.01;100623.11;125804;1099;102973;-76
2022/07/12 06:35:25;;;;;;;4.80;1.87;;;;;;;18.30;49.75;100628.48;125725;1099;103778;-77
2022/07/12 06:38:01;;;;;;;3.30;1.90;;;;;;;18.42;49.64;100618.83;126291;1099;103384;-78
2022/07/12 06:40:34;;;;;;;2.50;1.50;;;;;;;18.52;49.25;100619.75;125553;1098;102953;-78
2022/07/12 06:43:12;;;;;;;4.40;1.70;;;;;;;18.60;49.31;100620.67;126378;1099;102705;-78
2022/07/12 06:45:51;;;;;;;4.10;1.77;;;;;;;18.71;49.33;100613.63;126092;1099;103269;-77
2022/07/12 06:48:24;;;;;;;8.00;2.03;;;;;;;18.81;49.17;100612.78;126292;1099;104086;-77
2022/07/12 06:50:57;;;;;;;8.50;1.87;;;;;;;18.90;49.37;100617.30;125677;1099;104168;-79
2022/07/12 06:53:32;;;;;;;7.87;2.10;;;;;;;19.00;49.23;100610.23;126198;1099;102461;-78
2022/07/12 06:56:03;;;;;;;;;;;;;;;19.12;47.61;100610.26;126391;1099;102979;-81
2022/07/12 06:58:36;;;;;;;3.53;1.53;;;;;;;19.23;48.30;100612.95;125446;1099;104318;-81
2022/07/12 07:01:13;;;;;;;3.50;1.63;;;;;;;19.36;47.74;100614.72;124919;1099;103806;-78
2022/07/12 07:03:52;;;;;;;4.30;1.70;;;;;;;19.43;47.75;100612.98;126290;1099;102907;-76
2022/07/12 07:06:25;;;;;;;7.23;2.03;;;;;;;19.54;48.27;100610.30;124755;1099;102749;-79
2022/07/12 07:09:07;;;;;;;3.72;1.70;;;;;;;19.67;46.68;100611.22;124931;1100;104239;-76
2022/07/12 07:11:39;;;;;;;4.63;2.00;;;;;;;19.80;47.54;100612.12;124779;1102;103690;-77
2022/07/12 07:14:13;;;;;;;2.27;1.77;;;;;;;19.94;46.70;100602.34;124805;1102;104424;-80
2022/07/12 07:16:48;;;;;;;3.90;1.70;;;;;;;20.03;47.24;100601.45;124853;1102;104175;-77
2022/07/12 07:19:24;;;;;;;3.13;1.70;;;;;;;20.14;46.95;100599.65;125500;1099;104256;-80
2022/07/12 07:22:14;;;;;;;2.97;1.80;;;;;;;20.33;46.58;100603.14;125587;1099;102313;-80
2022/07/12 07:24:53;;;;;;;5.73;2.03;;;;;;;20.55;46.09;100595.96;125976;1102;103394;-76
2022/07/12 07:27:33;;;;;;;6.87;1.77;;;;;;;20.76;45.19;100599.48;126041;1102;102889;-76
2022/07/12 07:33:16;;;;;;;2.73;1.70;;;;;;;21.14;45.30;100593.92;126030;1099;102564;-78
2022/07/12 07:35:49;;;;;;;3.80;2.00;;;;;;;21.26;44.77;100597.42;126280;1099;102201;-76
2022/07/12 07:38:27;;;;;;;4.57;1.80;;;;;;;21.42;44.63;100600.86;126591;1099;103031;-77
2022/07/12 07:40:59;;;;;;;4.08;1.60;;;;;;;21.71;44.37;100603.34;126924;1098;103031;-78
2022/07/12 07:46:18;;;;;;;4.47;1.87;;;;;;;22.07;43.17;100594.08;126740;1098;102815;-78
2022/07/12 07:48:50;;;;;;;3.10;1.60;;;;;;;22.25;42.74;100589.44;126556;1099;101956;-76
2022/07/12 07:51:40;;;;;;;4.40;1.83;;;;;;;22.33;42.89;100594.73;126729;1099;103556;-77
2022/07/12 07:54:13;;;;;;;4.27;1.83;;;;;;;22.39;42.73;100595.57;126318;1099;102319;-78
2022/07/12 07:56:51;;;;;;;3.83;1.77;;;;;;;22.51;42.13;100589.17;126839;1098;103077;-79
2022/07/12 07:59:25;;;;;;;4.13;1.30;;;;;;;22.47;42.28;100591.91;126863;1098;102327;-76
2022/07/12 08:02:01;;;;;;;1.12;1.02;;;;;;;22.61;41.02;100589.97;126181;1099;101890;-78
2022/07/12 08:04:35;;;;;;;1.83;1.10;;;;;;;22.78;40.04;100582.60;125129;1099;103016;-77
2022/07/12 08:07:07;;;;;;;3.92;1.27;;;;;;;23.00;40.25;100584.08;124830;1099;103210;-79
2022/07/12 08:09:42;;;;;;;4.20;1.60;;;;;;;23.27;39.99;100589.06;124702;1099;104268;-76
2022/07/12 08:12:15;;;;;;;3.30;1.70;;;;;;;23.51;39.88;100584.22;124688;1102;103517;-76
2022/07/12 08:14:51;;;;;;;5.80;1.50;;;;;;;23.56;39.29;100582.38;124780;1099;103009;-76
2022/07/12 08:17:26;;;;;;;6.13;1.63;;;;;;;23.54;38.92;100584.17;124825;1099;104489;-75
2022/07/12 08:20:00;;;;;;;1.90;1.22;;;;;;;23.65;37.95;100587.58;124537;1102;104351;-77
2022/07/12 08:22:35;;;;;;;2.97;1.50;;;;;;;23.97;38.13;100574.55;124820;1099;104171;-77
2022/07/12 08:25:08;;;;;;;4.57;1.60;;;;;;;24.12;38.45;100571.58;124665;1099;103419;-77
2022/07/12 08:27:42;;;;;;;4.80;1.53;;;;;;;24.03;37.19;100572.63;126156;1099;103436;-78
2022/07/12 08:30:12;;;;;;;;;;;;;;;23.83;35.77;100572.09;126174;1099;103704;-77
2022/07/12 08:32:50;;;;;;;2.13;1.33;;;;;;;23.76;36.96;100567.73;126067;1099;102783;-80
2022/07/12 08:35:24;;;;;;;1.63;1.23;;;;;;;23.93;36.54;100562.98;125865;1099;104248;-77
2022/07/12 08:37:58;;;;;;;3.63;1.37;;;;;;;24.18;36.25;100565.20;125489;1099;103191;-76
2022/07/12 08:40:31;;;;;;;5.30;1.40;;;;;;;24.32;34.36;100560.44;125394;1099;103115;-76
2022/07/12 08:43:05;;;;;;;6.43;1.03;;;;;;;24.40;34.62;100563.88;125398;1098;104335;-79
2022/07/12 08:45:40;;;;;;;7.50;1.80;;;;;;;24.37;34.82;100553.20;125594;1099;104336;-77
2022/07/12 08:48:18;;;;;;;4.83;1.23;;;;;;;24.48;34.44;100570.86;125158;1099;104219;-76
2022/07/12 08:51:05;;;;;;;2.53;1.27;;;;;;;24.62;34.11;100566.14;124892;1102;104325;-77
2022/07/12 08:53:50;;;;;;;2.27;1.20;;;;;;;24.50;33.59;100558.32;124921;1099;102668;-79
2022/07/12 08:56:35;;;;;;;3.10;1.70;;;;;;;24.51;33.69;100560.97;125300;1099;103689;-77
2022/07/12 08:59:18;;;;;;;8.77;1.70;;;;;;;24.70;33.61;100558.80;125395;1099;103406;-81
2022/07/12 09:02:03;;;;;;;2.90;1.40;;;;;;;24.98;33.70;100560.88;125670;1099;102833;-79
2022/07/12 09:05:00;;;;;;;3.80;1.13;;;;;;;25.25;33.32;100555.77;125572;1099;104168;-79
2022/07/12 09:08:04;;;;;;;2.10;1.40;;;;;;;25.25;32.64;100564.70;126291;1099;102361;-79
2022/07/12 09:10:52;;;;;;;2.90;1.30;;;;;;;25.28;33.43;100564.66;125474;1099;102650;-81
2022/07/12 09:13:52;;;;;;;1.77;1.20;;;;;;;25.43;32.85;100560.72;125228;1099;104507;-80
2022/07/12 09:16:27;;;;;;;3.63;1.30;;;;;;;25.76;32.09;100563.47;126161;1099;104262;-79
2022/07/12 09:19:25;;;;;;;3.23;1.30;;;;;;;26.00;32.02;100570.00;125164;1099;104290;-80
2022/07/12 09:22:00;;;;;;;1.80;1.13;;;;;;;25.95;31.65;100563.84;124957;1099;103941;-78
2022/07/12 09:24:33;;;;;;;4.03;1.40;;;;;;;25.80;31.45;100566.94;125120;1099;104507;-80
2022/07/12 09:27:14;;;;;;;2.80;1.30;;;;;;;25.74;31.70;100562.63;125170;1099;104248;-78
2022/07/12 09:30:20;;;;;;;3.03;1.30;;;;;;;25.64;31.31;100559.27;125569;1098;104162;-78
2022/07/12 09:36:25;;;;;;;5.27;1.50;;;;;;;25.27;31.18;100578.08;126141;1099;102827;-80
2022/07/12 09:39:00;;;;;;;5.50;1.70;;;;;;;25.37;31.14;100568.93;126066;1099;104711;-78
2022/07/12 09:41:36;;;;;;;1.90;1.40;;;;;;;25.58;31.39;100562.12;126109;1099;104270;-77
2022/07/12 09:44:13;;;;;;;3.37;1.30;;;;;;;25.84;30.76;100557.88;125877;1099;102450;-77
2022/07/12 09:46:48;;;;;;;6.15;1.40;;;;;;;25.93;30.28;100559.42;125295;1099;103969;-80
2022/07/12 09:49:22;;;;;;;8.23;2.17;;;;;;;26.06;30.25;100565.41;125225;1099;103172;-79
2022/07/12 09:51:57;;;;;;;9.63;1.77;;;;;;;26.01;29.66;100558.34;125166;1099;102587;-81
2022/07/12 09:54:31;;;;;;;2.33;1.60;;;;;;;25.93;29.77;100559.42;125080;1099;103986;-78
2022/07/12 09:57:12;;;;;;;3.17;2.10;;;;;;;25.91;29.51;100561.28;125271;1099;102812;-79
2022/07/12 09:59:44;;;;;;;3.30;1.60;;;;;;;25.95;29.64;100566.53;125056;1099;104254;-79
2022/07/12 10:02:18;;;;;;;6.60;1.53;;;;;;;25.96;30.02;100554.87;125151;1099;104182;-77
2022/07/12 10:04:53;;;;;;;2.83;1.50;;;;;;;25.88;29.27;100555.98;125369;1098;104278;-78
2022/07/12 10:07:27;;;;;;;3.00;1.30;;;;;;;25.73;29.59;100551.92;125304;1099;104243;-77
2022/07/12 10:09:59;;;;;;;3.50;1.40;;;;;;;25.67;29.53;100558.33;125527;1099;104210;-77
2022/07/12 10:12:33;;;;;;;2.33;1.20;;;;;;;25.55;29.38;100556.83;124812;1099;104223;-76
2022/07/12 10:15:15;;;;;;;2.90;1.47;;;;;;;25.45;29.50;100553.50;125427;1099;104246;-77
2022/07/12 10:17:59;;;;;;;1.80;1.30;;;;;;;25.41;29.64;100549.11;126762;1099;103502;-76
2022/07/12 10:20:33;;;;;;;1.93;1.60;;;;;;;25.41;29.85;100549.11;126810;1099;102333;-77
2022/07/12 10:23:35;;;;;;;7.07;1.50;;;;;;;25.37;29.59;100539.39;126107;1099;103288;-76
2022/07/12 10:26:38;;;;;;;4.40;1.63;;;;;;;25.38;29.77;100545.63;126653;1098;103120;-76
2022/07/12 10:29:20;;;;;;;4.00;1.47;;;;;;;25.63;29.96;100537.82;126623;1099;103318;-77
2022/07/12 10:31:53;;;;;;;10.23;2.00;;;;;;;25.93;29.85;100535.23;126736;1099;103079;-78
2022/07/12 10:34:27;;;;;;;3.33;1.75;;;;;;;26.15;29.62;100524.81;126936;1098;102640;-77
2022/07/12 10:37:16;;;;;;;7.63;1.70;;;;;;;26.18;29.70;100527.42;126867;1098;103026;-77
2022/07/12 10:40:18;;;;;;;4.97;1.50;;;;;;;26.36;29.58;100526.86;126916;1098;112036;-80
2022/07/12 10:43:29;;;;;;;;;;;;;;;;;;;;;
2022/07/12 10:46:18;;;;;;;5.53;1.63;;;;;;;26.53;29.41;100526.36;125352;1099;103160;-77
2022/07/12 10:49:14;;;;;;;5.47;1.40;;;;;;;26.49;28.84;100516.64;125519;1099;104211;-77
2022/07/12 10:52:19;;;;;;;4.00;1.30;;;;;;;26.34;29.27;100519.78;125919;1099;104159;-79
2022/07/12 10:55:19;;;;;;;4.97;1.60;;;;;;;26.25;28.97;100501.22;125537;1099;103019;-79
2022/07/12 10:57:55;;;;;;;3.30;1.23;;;;;;;26.41;29.39;100518.66;116894;1099;10001232;-76
2022/07/12 11:00:28;;;;;;;3.33;1.77;;;;;;;26.26;29.10;100511.94;125280;1099;104248;-78
2022/07/12 11:03:15;;;;;;;2.57;1.93;;;;;;;26.18;29.15;100514.84;125355;1099;104100;-78
2022/07/12 11:05:48;;;;;;;3.93;1.63;;;;;;;26.17;29.04;100518.45;125209;1099;104194;-76
2022/07/12 11:08:20;;;;;;;2.80;1.50;;;;;;;26.12;29.12;100509.64;125188;1099;104267;-78
2022/07/12 11:11:02;;;;;;;3.80;1.40;;;;;;;26.00;29.05;100508.17;125238;1099;104185;-79
2022/07/12 11:13:37;;;;;;;2.73;1.67;;;;;;;25.95;28.87;100509.21;124781;1099;104463;-79
2022/07/12 11:16:12;;;;;;;3.50;2.00;;;;;;;26.12;28.89;100503.39;124776;1099;103368;-78
2022/07/12 11:18:46;;;;;;;5.30;1.90;;;;;;;26.17;28.61;100499.62;124719;1102;105098;-78
2022/07/12 11:21:28;;;;;;;3.83;1.70;;;;;;;26.18;28.11;100504.09;124705;1099;104047;-78
2022/07/12 11:24:15;;;;;;;4.07;1.30;;;;;;;25.96;28.02;100497.52;124829;1099;104218;-77
2022/07/12 11:26:49;;;;;;;4.37;1.60;;;;;;;25.92;28.03;100493.17;124708;1099;104405;-79
2022/07/12 11:29:26;;;;;;;;;;;;;;;25.93;28.61;100490.44;124731;1099;104342;-77
2022/07/12 11:32:13;;;;;;;9.50;1.97;;;;;;;26.00;28.14;100489.35;124744;1099;102597;-77
2022/07/12 11:34:48;;;;;;;6.00;1.80;;;;;;;26.17;28.90;100496.94;125561;1099;104245;-78
2022/07/12 11:37:36;;;;;;;5.40;1.50;;;;;;;26.12;27.59;100482.75;124578;1102;104430;-79
2022/07/12 11:43:11;;;;;;;2.50;1.60;;;;;;;25.83;27.74;100494.30;125634;1102;104127;-78
2022/07/12 11:45:45;;;;;;;6.10;1.80;;;;;;;25.87;28.26;100487.92;125231;1099;103986;-79
2022/07/12 11:48:25;;;;;;;3.30;1.83;;;;;;;25.96;27.95;100486.77;125476;1099;104207;-76
2022/07/12 11:51:01;;;;;;;3.33;1.60;;;;;;;25.99;28.49;100492.08;125544;1099;103423;-79
2022/07/12 11:53:37;;;;;;;7.53;2.10;;;;;;;26.08;28.65;100482.89;125440;1099;102803;-79
2022/07/12 11:56:26;;;;;;;;;;;;;;;;;;;;;
2022/07/12 11:59:31;;;;;;;6.33;1.60;;;;;;;25.91;27.85;100478.83;126209;1099;103221;-80
2022/07/12 12:02:19;;;;;;;6.00;1.60;;;;;;;25.57;27.86;100492.31;125640;1099;119134;-82
2022/07/12 12:05:18;;;;;;;3.87;1.60;;;;;;;25.60;28.28;100487.75;126136;1099;103691;-79
2022/07/12 12:07:58;;;;;;;3.73;2.10;;;;;;;25.68;27.93;100487.55;126020;1099;103339;-82
2022/07/12 12:10:57;;;;;;;3.27;1.70;;;;;;;25.88;28.14;100481.59;126086;1099;102517;-82
2022/07/12 12:13:36;;;;;;;2.10;1.80;;;;;;;26.14;28.19;100486.27;126100;1099;104208;-80